Time;durP1;ratioP1;P1;durP2;ratioP2;P2;SDS_P1;SDS_P2;PMS_P1;PMS_P2;Temp;Humidity;BMP_temperature;BMP_pressure;BME280_temperature;BME280_humidity;BME280_pressure;Samples;Min_cycle;Max_cycle;Signal;HPM_P1;HPM_P2
2023/01/28 00:02:08;;;;;;;5.23;4.83;;;;;;;2.73;78.71;94427.00;5035029;28;20226;-71
2023/01/28 00:04:35;;;;;;;4.67;4.33;;;;;;;2.70;78.16;94419.53;5035323;28;20221;-74
2023/01/28 00:07:02;;;;;;;5.70;5.17;;;;;;;2.68;78.43;94427.94;5035078;28;20274;-73
2023/01/28 00:09:28;;;;;;;4.77;4.33;;;;;;;2.54;79.05;94423.06;5034745;28;20211;-74
2023/01/28 00:11:55;;;;;;;4.83;4.43;;;;;;;2.50;78.43;94431.50;5031512;28;20215;-75
2023/01/28 00:14:23;;;;;;;4.73;4.33;;;;;;;2.54;78.29;94435.63;5035229;28;20210;-75
2023/01/28 00:16:50;;;;;;;4.47;4.07;;;;;;;2.57;78.77;94443.09;5034389;28;20214;-77
2023/01/28 00:19:17;;;;;;;3.90;3.60;;;;;;;2.52;78.60;94439.81;5035552;28;20218;-79
2023/01/28 00:21:43;;;;;;;4.77;4.40;;;;;;;2.54;79.00;94440.63;5034128;28;20203;-75
2023/01/28 00:24:10;;;;;;;5.50;4.10;;;;;;;2.52;78.33;94441.50;5035698;28;20203;-76
2023/01/28 00:26:37;;;;;;;3.60;3.40;;;;;;;2.36;79.61;94438.38;5034227;28;20198;-75
2023/01/28 00:29:04;;;;;;;4.63;4.30;;;;;;;2.46;78.95;94449.13;5034488;28;20602;-74
2023/01/28 00:31:33;;;;;;;4.97;4.57;;;;;;;2.37;79.03;94440.84;5034719;28;20243;-74
2023/01/28 00:33:59;;;;;;;5.10;4.47;;;;;;;2.43;79.34;94450.00;5034734;28;21020;-76
2023/01/28 00:36:27;;;;;;;4.60;4.30;;;;;;;2.36;79.64;94451.72;5034083;28;20526;-72
2023/01/28 00:38:55;;;;;;;4.50;4.13;;;;;;;2.37;80.11;94450.06;5033507;28;20231;-74
2023/01/28 00:41:23;;;;;;;4.20;3.90;;;;;;;2.38;79.18;94451.72;5033638;28;20731;-75
2023/01/28 00:43:51;;;;;;;4.37;4.03;;;;;;;2.40;79.36;94455.03;5033601;28;20249;-74
2023/01/28 00:46:19;;;;;;;5.03;4.53;;;;;;;2.41;79.66;94455.88;5033934;28;20207;-76
2023/01/28 00:48:47;;;;;;;4.53;4.23;;;;;;;2.41;79.64;94455.88;5033699;28;20219;-76
2023/01/28 00:51:17;;;;;;;5.10;4.70;;;;;;;2.37;79.39;94460.09;5034513;28;20223;-76
2023/01/28 00:53:44;;;;;;;5.23;4.83;;;;;;;2.35;79.61;94460.09;5034472;28;20298;-77
2023/01/28 00:56:13;;;;;;;5.17;4.77;;;;;;;2.47;79.28;94461.66;5035004;28;20261;-76
2023/01/28 00:58:41;;;;;;;6.03;5.43;;;;;;;2.44;79.39;94461.69;5033521;28;20763;-76
2023/01/28 01:01:09;;;;;;;5.47;4.97;;;;;;;2.50;79.44;94468.28;5032832;28;20206;-77
2023/01/28 01:03:36;;;;;;;5.47;5.07;;;;;;;2.44;79.43;94466.69;5031978;28;20816;-78
2023/01/28 01:06:05;;;;;;;5.13;4.73;;;;;;;2.49;79.27;94464.94;5032888;28;20618;-76
2023/01/28 01:08:34;;;;;;;5.60;5.10;;;;;;;2.46;79.57;94462.50;5035538;28;20207;-78
2023/01/28 01:11:02;;;;;;;6.17;5.63;;;;;;;2.51;78.64;94462.41;5033248;28;20233;-76
2023/01/28 01:13:29;;;;;;;5.30;4.93;;;;;;;2.50;79.28;94451.56;5032452;28;20207;-75
2023/01/28 01:16:02;;;;;;;5.57;5.10;;;;;;;2.45;79.63;94458.31;5034132;28;20203;-78
2023/01/28 01:18:29;;;;;;;5.30;4.90;;;;;;;2.50;78.75;94461.56;5034632;28;20211;-76
2023/01/28 01:20:57;;;;;;;5.80;5.40;;;;;;;2.52;78.53;94469.91;5034362;28;20668;-75
2023/01/28 01:23:26;;;;;;;5.63;5.07;;;;;;;2.40;79.40;94460.06;5034220;28;20207;-75
2023/01/28 01:25:53;;;;;;;5.27;4.87;;;;;;;2.38;79.67;94467.59;5033664;28;20208;-78
2023/01/28 01:28:21;;;;;;;6.33;5.73;;;;;;;2.33;79.55;94461.78;5033240;28;20222;-77
2023/01/28 01:30:48;;;;;;;5.40;5.00;;;;;;;2.33;79.65;94473.50;5033725;28;20234;-76
2023/01/28 01:33:17;;;;;;;4.80;4.50;;;;;;;2.36;79.44;94473.47;5033508;28;20870;-78
2023/01/28 01:35:43;;;;;;;5.37;4.97;;;;;;;2.36;79.20;94469.28;5033538;28;20215;-78
2023/01/28 01:38:10;;;;;;;5.60;5.20;;;;;;;2.37;79.68;94470.13;5033813;28;20218;-73
2023/01/28 01:40:38;;;;;;;5.10;4.70;;;;;;;2.37;79.29;94472.63;5033599;28;20227;-74
2023/01/28 01:43:15;;;;;;;5.70;5.20;;;;;;;2.43;78.94;94469.22;5033644;28;20269;-77
2023/01/28 01:45:44;;;;;;;5.73;5.33;;;;;;;2.34;78.95;94470.97;5034995;28;20203;-75
2023/01/28 01:48:16;;;;;;;5.60;5.20;;;;;;;2.31;79.34;94476.03;5033793;28;20638;-76
2023/01/28 01:50:47;;;;;;;6.43;5.90;;;;;;;2.20;79.77;94477.84;5033173;28;20222;-74
2023/01/28 01:53:18;;;;;;;5.30;4.90;;;;;;;2.30;80.39;94471.84;5033420;28;20211;-78
2023/01/28 01:55:49;;;;;;;5.73;5.23;;;;;;;2.24;79.74;94476.09;5032515;28;20214;-78
2023/01/28 01:58:19;;;;;;;5.27;4.83;;;;;;;2.27;80.12;94468.53;5033162;28;20207;-79
2023/01/28 02:00:46;;;;;;;5.83;5.33;;;;;;;2.27;79.59;94473.56;5033024;28;20213;-74
2023/01/28 02:03:15;;;;;;;5.67;5.17;;;;;;;2.25;80.19;94470.25;5032867;28;20210;-76
2023/01/28 02:05:42;;;;;;;5.07;4.67;;;;;;;2.30;79.76;94473.53;5033057;28;20989;-78
2023/01/28 02:08:21;;;;;;;5.57;5.17;;;;;;;2.26;80.38;94475.22;5034038;28;20211;-77
2023/01/28 02:10:53;;;;;;;5.53;5.03;;;;;;;2.37;78.56;94480.97;5032969;28;20226;-77
2023/01/28 02:13:23;;;;;;;5.03;4.63;;;;;;;2.41;79.17;94495.97;5032548;28;20211;-79
2023/01/28 02:15:50;;;;;;;4.70;4.40;;;;;;;2.39;78.98;94491.81;5031983;28;20677;-79
2023/01/28 02:18:17;;;;;;;6.03;4.90;;;;;;;2.28;79.50;94490.25;5032755;28;20297;-75
2023/01/28 02:21:03;;;;;;;4.60;4.20;;;;;;;2.31;79.33;94490.22;5033079;28;20276;-75
2023/01/28 02:23:51;;;;;;;5.43;4.97;;;;;;;2.28;79.17;94490.25;5032182;28;20211;-79
2023/01/28 02:26:46;;;;;;;5.67;5.17;;;;;;;2.22;80.14;94490.34;5031685;28;20753;-79
2023/01/28 02:29:21;;;;;;;12.23;4.97;;;;;;;2.17;79.54;94487.06;5033242;28;20199;-75
2023/01/28 02:31:54;;;;;;;4.73;4.40;;;;;;;2.12;80.26;94486.28;5032598;28;20254;-77
2023/01/28 02:34:34;;;;;;;4.23;3.93;;;;;;;2.17;80.01;94485.38;5031756;28;20881;-75
2023/01/28 02:37:08;;;;;;;5.50;5.00;;;;;;;2.17;78.86;94492.06;5032630;28;20298;-78
2023/01/28 02:39:40;;;;;;;4.80;4.40;;;;;;;2.20;79.17;94489.53;5033275;28;20227;-74
2023/01/28 02:42:12;;;;;;;4.77;4.47;;;;;;;2.14;79.27;94484.59;5031918;28;20203;-75
2023/01/28 02:44:40;;;;;;;4.70;4.23;;;;;;;2.17;79.24;94482.88;5032027;28;20210;-76
2023/01/28 02:49:59;;;;;;;5.50;4.73;;;;;;;2.22;79.39;94501.22;5032612;28;20305;-74
2023/01/28 02:55:29;;;;;;;4.77;4.37;;;;;;;2.08;79.24;94492.16;5034827;28;20260;-78
2023/01/28 02:58:05;;;;;;;7.10;4.77;;;;;;;2.07;79.88;94493.00;5031652;28;20683;-78
2023/01/28 03:00:40;;;;;;;4.87;4.47;;;;;;;2.04;79.12;94492.19;5032138;28;20212;-78
2023/01/28 03:03:17;;;;;;;8.03;3.93;;;;;;;2.00;79.47;94495.56;5032143;28;20245;-74
2023/01/28 03:06:02;;;;;;;4.87;4.57;;;;;;;1.96;79.34;94500.66;5032183;28;20233;-76
2023/01/28 03:39:00;;;;;;;5.33;4.93;;;;;;;1.98;80.10;94507.28;5031518;28;20276;-74
2023/01/28 03:41:27;;;;;;;4.47;4.17;;;;;;;1.88;80.00;94505.72;5032037;28;20207;-79
2023/01/28 03:43:54;;;;;;;5.00;4.63;;;;;;;1.99;79.92;94513.94;5032638;28;20207;-75
2023/01/28 03:46:21;;;;;;;5.60;5.20;;;;;;;2.07;79.74;94506.38;5032180;28;20218;-75
2023/01/28 03:48:49;;;;;;;5.07;4.50;;;;;;;2.04;79.13;94499.69;5031264;28;20261;-78
2023/01/28 03:51:16;;;;;;;5.27;4.93;;;;;;;1.97;80.15;94515.66;5031026;28;20684;-79
2023/01/28 03:53:43;;;;;;;6.07;4.87;;;;;;;1.92;80.02;94517.38;5030706;28;20754;-79
2023/01/28 03:56:17;;;;;;;4.77;4.37;;;;;;;1.98;79.11;94522.31;5032576;28;20765;-78
2023/01/28 03:58:51;;;;;;;4.83;4.53;;;;;;;1.99;79.00;94518.13;5030580;28;20207;-71
2023/01/28 04:01:18;;;;;;;5.07;4.67;;;;;;;1.95;79.88;94521.53;5031047;28;20877;-77
2023/01/28 04:03:45;;;;;;;5.23;4.80;;;;;;;2.03;79.47;94525.59;5031476;28;20268;-77
2023/01/28 04:06:13;;;;;;;5.10;4.73;;;;;;;1.88;79.38;94525.75;5031972;28;20195;-78
2023/01/28 04:08:44;;;;;;;5.13;4.73;;;;;;;1.91;79.72;94519.91;5032225;28;20206;-74
2023/01/28 04:11:15;;;;;;;4.87;4.47;;;;;;;1.96;79.68;94524.03;5031784;28;20288;-77
2023/01/28 04:13:42;;;;;;;7.07;4.80;;;;;;;1.91;79.75;94525.72;5031756;28;20711;-73
2023/01/28 04:16:09;;;;;;;5.10;4.70;;;;;;;1.89;78.90;94529.94;5031476;28;20203;-78
2023/01/28 04:18:35;;;;;;;4.10;3.80;;;;;;;1.79;78.82;94528.34;5032163;28;20285;-75
2023/01/28 04:21:02;;;;;;;4.67;4.27;;;;;;;1.80;79.78;94527.50;5031093;28;20203;-75
2023/01/28 04:23:30;;;;;;;3.90;3.67;;;;;;;1.85;79.32;94535.81;5032019;28;20707;-78
2023/01/28 04:25:57;;;;;;;4.27;3.97;;;;;;;1.84;79.14;94536.66;5031375;28;20257;-75
2023/01/28 04:28:24;;;;;;;4.83;4.43;;;;;;;1.91;79.67;94530.75;5033887;28;20210;-73
2023/01/28 04:30:52;;;;;;;4.47;4.17;;;;;;;1.82;79.68;94540.00;5033095;28;21725;-75
2023/01/28 04:33:19;;;;;;;5.43;4.93;;;;;;;1.88;79.58;94542.47;5031919;28;21431;-75
2023/01/28 04:35:46;;;;;;;5.67;5.00;;;;;;;1.88;79.95;94543.28;5031160;28;20292;-78
2023/01/28 04:38:12;;;;;;;4.73;4.37;;;;;;;1.83;80.48;94547.50;5031199;28;20210;-77
2023/01/28 04:40:40;;;;;;;5.23;4.80;;;;;;;1.80;80.44;94554.22;5033675;28;20269;-77
2023/01/28 04:43:07;;;;;;;4.63;4.33;;;;;;;1.81;81.24;94551.69;5035258;28;20203;-76
2023/01/28 04:45:34;;;;;;;5.50;5.03;;;;;;;1.90;80.58;94558.31;5038364;28;20289;-75
2023/01/28 04:48:00;;;;;;;6.93;4.87;;;;;;;1.86;80.83;94560.00;5037089;28;20331;-75
2023/01/28 04:50:27;;;;;;;6.03;5.53;;;;;;;1.89;81.17;94561.66;5034877;28;20207;-77
2023/01/28 04:52:54;;;;;;;4.77;4.47;;;;;;;1.96;80.06;94564.13;5035515;28;20242;-76
2023/01/28 04:55:20;;;;;;;8.33;5.10;;;;;;;1.90;80.68;94570.84;5034311;28;20211;-76
2023/01/28 04:57:48;;;;;;;4.67;4.27;;;;;;;1.91;80.65;94559.97;5035629;28;20206;-78
2023/01/28 05:00:16;;;;;;;4.57;4.17;;;;;;;1.87;80.86;94571.69;5034443;28;20260;-75
2023/01/28 05:02:43;;;;;;;4.90;4.50;;;;;;;1.90;80.68;94569.16;5034759;28;20207;-79
2023/01/28 05:05:10;;;;;;;5.57;4.37;;;;;;;1.84;79.92;94571.72;5034364;28;20207;-77
2023/01/28 05:07:37;;;;;;;4.80;4.40;;;;;;;1.83;80.45;94570.06;5034883;28;20207;-75
2023/01/28 05:10:04;;;;;;;6.27;5.23;;;;;;;1.75;81.39;94574.28;5035093;28;20203;-78
2023/01/28 05:12:31;;;;;;;5.70;5.20;;;;;;;1.75;80.69;94578.47;5034448;28;20238;-76
2023/01/28 05:15:00;;;;;;;5.27;4.83;;;;;;;1.70;81.21;94576.84;5034768;28;20581;-78
2023/01/28 05:17:27;;;;;;;4.93;4.53;;;;;;;1.81;80.51;94584.25;5034730;28;20810;-75
2023/01/28 05:19:54;;;;;;;5.00;4.53;;;;;;;1.77;80.63;94585.13;5035286;28;20202;-74
2023/01/28 05:22:20;;;;;;;5.50;5.03;;;;;;;1.82;80.34;94590.94;5033831;28;20206;-77
2023/01/28 05:24:47;;;;;;;4.13;3.83;;;;;;;1.89;79.80;94586.72;5034716;28;20801;-77
2023/01/28 05:27:14;;;;;;;5.63;5.00;;;;;;;1.89;79.84;94597.56;5036217;28;20227;-77
2023/01/28 05:29:41;;;;;;;5.07;4.67;;;;;;;1.99;79.08;94591.63;5035767;28;20214;-78
2023/01/28 05:32:09;;;;;;;5.23;4.77;;;;;;;1.96;78.73;94598.38;5034918;28;20246;-77
2023/01/28 05:34:36;;;;;;;7.07;5.40;;;;;;;1.92;79.66;94597.56;5037582;28;20215;-78
2023/01/28 05:37:02;;;;;;;5.47;5.07;;;;;;;1.84;79.59;94598.44;5036416;28;20669;-75
2023/01/28 05:39:30;;;;;;;5.13;4.60;;;;;;;1.89;79.12;94602.59;5034747;28;20630;-73
2023/01/28 05:41:56;;;;;;;5.10;4.70;;;;;;;1.85;80.25;94608.47;5034102;28;20206;-78
2023/01/28 05:44:23;;;;;;;6.07;5.57;;;;;;;1.82;80.39;94612.66;5034197;28;21377;-75
2023/01/28 05:46:50;;;;;;;5.50;5.10;;;;;;;1.78;79.09;94604.31;5034418;28;20207;-75
2023/01/28 05:49:18;;;;;;;5.20;4.80;;;;;;;1.86;79.63;94606.78;5034384;28;20207;-76
2023/01/28 05:51:47;;;;;;;5.30;4.80;;;;;;;1.88;79.33;94605.94;5032545;28;20268;-75
2023/01/28 05:54:14;;;;;;;5.97;4.67;;;;;;;1.84;78.29;94604.28;5032884;28;20218;-76
2023/01/28 05:56:40;;;;;;;4.60;4.30;;;;;;;1.75;79.40;94608.53;5032745;28;20203;-75
2023/01/28 05:59:09;;;;;;;4.90;4.50;;;;;;;1.77;79.30;94612.69;5034275;28;20276;-76
2023/01/28 06:01:35;;;;;;;4.13;3.90;;;;;;;1.83;79.35;94610.13;5033454;28;20528;-79
2023/01/28 06:04:02;;;;;;;5.10;4.73;;;;;;;1.81;79.48;94624.34;5032530;28;20218;-79
2023/01/28 06:06:31;;;;;;;5.70;5.03;;;;;;;1.78;79.42;94626.88;5033693;28;20264;-76
2023/01/28 06:08:57;;;;;;;5.43;5.00;;;;;;;1.83;79.62;94626.84;5033669;28;20680;-78
2023/01/28 06:11:24;;;;;;;5.90;5.40;;;;;;;1.81;79.33;94634.38;5033852;28;20207;-77
2023/01/28 06:13:51;;;;;;;5.23;4.83;;;;;;;1.85;78.90;94631.00;5033881;28;20226;-80
2023/01/28 06:16:17;;;;;;;4.90;4.50;;;;;;;1.81;79.07;94636.88;5033173;28;20214;-78
2023/01/28 06:18:44;;;;;;;11.50;9.13;;;;;;;1.81;78.77;94644.38;5096911;22;20233;-75
2023/01/28 06:21:11;;;;;;;10.00;7.17;;;;;;;1.89;79.57;94652.69;5062884;28;20584;-77
2023/01/28 06:23:39;;;;;;;6.43;5.83;;;;;;;1.85;79.50;94651.06;5064874;28;20206;-78
2023/01/28 06:26:06;;;;;;;6.47;5.87;;;;;;;1.78;80.28;94661.94;5062654;28;20208;-78
2023/01/28 06:28:32;;;;;;;6.50;5.90;;;;;;;1.80;80.04;94652.75;5065880;28;20680;-75
2023/01/28 06:30:59;;;;;;;6.47;5.97;;;;;;;1.79;79.32;94661.09;5063581;28;20224;-77
2023/01/28 06:33:27;;;;;;;7.20;6.17;;;;;;;1.91;79.93;94671.06;5065950;28;20262;-78
2023/01/28 06:35:54;;;;;;;6.67;6.07;;;;;;;1.92;79.69;94662.69;5065420;28;20674;-75
2023/01/28 06:38:21;;;;;;;6.17;5.73;;;;;;;2.10;78.97;94666.75;5063565;28;20221;-75
2023/01/28 06:40:54;;;;;;;5.57;5.10;;;;;;;2.11;78.28;94667.56;5063896;28;21662;-77
2023/01/28 06:43:26;;;;;;;6.37;5.87;;;;;;;2.14;78.45;94672.56;5063421;28;21771;-76
2023/01/28 06:45:53;;;;;;;6.17;5.67;;;;;;;2.14;77.91;94672.56;5062317;28;20201;-78
2023/01/28 06:48:20;;;;;;;6.33;5.60;;;;;;;2.23;78.25;94687.53;5064015;28;20201;-80
2023/01/28 06:50:47;;;;;;;5.77;5.27;;;;;;;2.25;77.41;94690.84;5063946;28;20206;-79
2023/01/28 06:53:14;;;;;;;6.50;6.00;;;;;;;2.26;77.92;94692.50;5061597;28;20225;-78
2023/01/28 06:55:40;;;;;;;6.50;5.90;;;;;;;2.33;77.05;94689.97;5062960;28;20214;-74
2023/01/28 06:58:09;;;;;;;7.07;6.40;;;;;;;2.31;76.75;94695.81;5063159;28;20204;-75
2023/01/28 07:00:36;;;;;;;6.43;5.93;;;;;;;2.21;78.28;94697.59;5062140;28;20210;-79
2023/01/28 07:03:03;;;;;;;6.20;5.60;;;;;;;2.30;77.82;94699.16;5063940;28;20295;-78
2023/01/28 07:05:30;;;;;;;6.70;6.20;;;;;;;2.32;77.88;94702.50;5063142;28;20255;-76
2023/01/28 07:07:56;;;;;;;6.53;5.93;;;;;;;2.37;77.40;94706.66;5063319;28;20214;-78
2023/01/28 07:10:23;;;;;;;7.03;6.33;;;;;;;2.40;77.12;94708.28;5062442;28;20210;-79
2023/01/28 07:12:50;;;;;;;9.80;6.90;;;;;;;2.41;76.62;94699.94;5061102;28;20229;-79
2023/01/28 07:15:18;;;;;;;9.63;6.83;;;;;;;2.47;76.50;94717.44;5062431;28;20293;-79
2023/01/28 07:17:45;;;;;;;8.10;5.77;;;;;;;2.50;76.67;94714.06;5061924;28;20221;-74
2023/01/28 07:20:14;;;;;;;6.70;6.10;;;;;;;2.48;77.76;94724.09;5063705;28;20201;-78
2023/01/28 07:22:42;;;;;;;7.63;6.87;;;;;;;2.50;76.47;94724.91;5061967;28;20225;-78
2023/01/28 07:25:11;;;;;;;7.20;6.23;;;;;;;2.55;77.75;94728.22;5060690;28;21561;-76
2023/01/28 07:27:37;;;;;;;10.67;8.53;;;;;;;2.53;77.19;94727.41;5061410;28;21126;-75
2023/01/28 07:30:05;;;;;;;7.43;6.60;;;;;;;2.66;78.25;94715.59;5061229;28;20197;-75
2023/01/28 07:32:33;;;;;;;14.87;10.00;;;;;;;2.92;76.52;94735.44;5062715;28;20278;-77
2023/01/28 07:35:00;;;;;;;7.90;7.10;;;;;;;3.13;75.84;94735.22;5062240;28;20289;-78
2023/01/28 07:37:26;;;;;;;7.37;6.77;;;;;;;3.27;74.03;94735.06;5062743;28;20213;-76
2023/01/28 07:39:53;;;;;;;8.20;7.50;;;;;;;3.23;74.91;94736.78;5063284;28;20306;-79
2023/01/28 07:42:20;;;;;;;7.40;6.77;;;;;;;3.25;74.09;94742.63;5061538;28;20201;-81
2023/01/28 07:44:46;;;;;;;9.63;7.17;;;;;;;3.26;73.92;94743.44;5063115;28;20887;-81
2023/01/28 07:47:13;;;;;;;7.50;6.90;;;;;;;3.25;73.11;94750.16;5062497;28;21449;-74
2023/01/28 07:49:41;;;;;;;6.83;6.23;;;;;;;3.22;73.67;94750.19;5062888;28;20251;-76
2023/01/28 07:52:08;;;;;;;7.23;6.63;;;;;;;3.13;74.05;94752.81;5062757;28;20209;-75
2023/01/28 07:54:35;;;;;;;8.27;7.47;;;;;;;3.13;73.63;94754.47;5062383;28;20744;-75
2023/01/28 07:57:05;;;;;;;7.50;6.80;;;;;;;3.03;74.15;94744.50;5061984;28;20214;-80
2023/01/28 07:59:31;;;;;;;7.27;6.57;;;;;;;3.08;73.65;94757.88;5063669;28;20209;-78
2023/01/28 08:01:59;;;;;;;7.60;6.90;;;;;;;3.12;73.80;94757.84;5061983;28;20205;-78
2023/01/28 08:04:26;;;;;;;7.47;6.77;;;;;;;3.12;73.51;94758.66;5068611;28;20207;-75
2023/01/28 08:06:55;;;;;;;6.63;6.03;;;;;;;3.20;73.51;94761.94;5061619;28;20207;-77
2023/01/28 08:09:22;;;;;;;6.23;5.63;;;;;;;3.13;73.56;94767.88;5061382;28;20244;-77
2023/01/28 08:11:49;;;;;;;7.40;6.47;;;;;;;3.19;73.61;94770.31;5062552;28;20197;-76
2023/01/28 08:14:15;;;;;;;7.60;6.93;;;;;;;3.23;73.99;94771.94;5064680;28;20802;-78
2023/01/28 08:16:42;;;;;;;8.53;7.67;;;;;;;3.28;73.77;94771.88;5066881;28;20210;-75
2023/01/28 08:19:10;;;;;;;7.73;6.73;;;;;;;3.28;73.65;94767.69;5066447;28;20210;-77
2023/01/28 08:21:36;;;;;;;6.70;6.20;;;;;;;3.30;73.54;94773.53;5066252;28;20616;-77
2023/01/28 08:24:05;;;;;;;7.03;6.40;;;;;;;3.37;73.57;94774.31;5065392;28;20207;-80
2023/01/28 08:26:32;;;;;;;6.57;5.83;;;;;;;3.48;72.77;94777.53;5065345;28;20640;-82
2023/01/28 08:28:58;;;;;;;6.80;6.13;;;;;;;3.53;72.82;94782.50;5066511;28;20210;-74
2023/01/28 08:31:25;;;;;;;6.77;6.03;;;;;;;3.78;72.44;94783.06;5067684;28;20213;-76
2023/01/28 08:33:52;;;;;;;6.77;6.13;;;;;;;3.91;71.46;94777.88;5066285;28;20233;-82
2023/01/28 08:36:19;;;;;;;7.00;6.30;;;;;;;4.03;70.65;94777.72;5067092;28;20210;-79
2023/01/28 08:38:45;;;;;;;7.20;6.50;;;;;;;4.19;70.00;94782.56;5064386;28;20205;-76
2023/01/28 08:41:13;;;;;;;8.03;7.23;;;;;;;4.27;69.77;94776.53;5065445;28;20953;-77
2023/01/28 08:43:40;;;;;;;6.83;6.23;;;;;;;4.44;68.90;94773.81;5064266;28;20202;-76
2023/01/28 08:46:07;;;;;;;16.53;10.30;;;;;;;4.57;68.53;94789.53;5065703;28;20690;-80
2023/01/28 08:48:34;;;;;;;13.53;10.37;;;;;;;4.78;68.78;94779.13;5063372;28;20305;-79
2023/01/28 08:51:00;;;;;;;7.47;6.20;;;;;;;5.05;67.72;94787.94;5065681;28;20208;-79
2023/01/28 08:53:27;;;;;;;6.63;6.07;;;;;;;5.10;66.28;94776.09;5064659;28;20244;-78
2023/01/28 08:55:54;;;;;;;5.70;5.20;;;;;;;5.18;66.65;94781.00;5064533;28;20279;-80
2023/01/28 08:58:22;;;;;;;7.03;6.33;;;;;;;5.25;65.77;94788.41;5064154;28;20293;-78
2023/01/28 09:00:49;;;;;;;7.27;6.57;;;;;;;5.26;66.02;94787.56;5066093;28;20296;-76
2023/01/28 09:03:16;;;;;;;7.73;7.03;;;;;;;5.00;67.06;94789.69;5063900;28;20202;-79
2023/01/28 09:05:43;;;;;;;7.03;6.37;;;;;;;4.98;66.71;94788.88;5064751;28;20210;-81
2023/01/28 09:08:13;;;;;;;6.30;5.63;;;;;;;4.84;68.03;94786.59;5065602;28;20205;-79
2023/01/28 09:10:40;;;;;;;7.00;6.40;;;;;;;4.84;68.73;94790.81;5066404;28;20217;-78
2023/01/28 09:13:09;;;;;;;9.10;6.93;;;;;;;4.93;68.21;94788.16;5064974;28;20226;-77
2023/01/28 09:15:37;;;;;;;7.10;6.50;;;;;;;4.99;67.46;94781.31;5065195;28;20205;-80
2023/01/28 09:18:04;;;;;;;9.45;8.35;;;;;;;4.91;67.47;94792.38;5064207;28;20312;-80
2023/01/28 09:20:32;;;;;;;7.83;7.10;;;;;;;4.82;67.73;94795.03;5064334;28;20593;-79
2023/01/28 09:22:59;;;;;;;7.30;6.47;;;;;;;4.73;67.68;94774.16;5065276;28;20208;-80
2023/01/28 09:25:25;;;;;;;10.60;8.97;;;;;;;4.60;68.37;94790.31;5064362;28;20206;-82
2023/01/28 09:27:52;;;;;;;12.03;8.23;;;;;;;4.49;68.44;94797.19;5063422;28;20226;-75
2023/01/28 09:30:19;;;;;;;9.70;7.40;;;;;;;4.49;68.83;94796.34;5066003;28;20206;-80
2023/01/28 09:32:50;;;;;;;7.87;6.63;;;;;;;4.52;69.59;94786.25;5065371;28;20916;-77
2023/01/28 09:35:18;;;;;;;6.87;6.27;;;;;;;4.54;68.66;94775.31;5064762;28;20206;-83
2023/01/28 09:37:45;;;;;;;5.87;5.47;;;;;;;4.46;68.73;94787.16;5064513;28;20213;-78
2023/01/28 09:40:17;;;;;;;7.23;6.53;;;;;;;4.34;68.94;94789.88;5063697;28;20234;-80
2023/01/28 09:42:59;;;;;;;6.97;6.27;;;;;;;4.30;69.37;94790.75;5062849;28;20676;-80
2023/01/28 09:45:33;;;;;;;7.47;6.77;;;;;;;4.33;70.13;94783.19;5064516;28;20607;-82
2023/01/28 09:48:04;;;;;;;6.47;5.87;;;;;;;4.36;70.09;94790.69;5064938;28;20209;-79
2023/01/28 09:50:33;;;;;;;6.83;6.13;;;;;;;4.40;69.77;94782.25;5065078;28;20680;-78
2023/01/28 09:53:05;;;;;;;8.63;6.80;;;;;;;4.44;70.67;94798.97;5064950;28;20781;-74
2023/01/28 09:55:36;;;;;;;7.35;6.75;;;;;;;4.36;70.29;94786.50;5061585;28;20205;-80
2023/01/28 09:58:06;;;;;;;7.97;6.30;;;;;;;4.29;70.64;94794.13;5062762;28;20198;-78
2023/01/28 10:00:40;;;;;;;14.87;10.10;;;;;;;4.26;71.07;94789.97;5062507;28;20205;-78
2023/01/28 10:03:28;;;;;;;8.90;7.97;;;;;;;4.23;71.69;94784.97;5063199;28;20601;-79
2023/01/28 10:06:08;;;;;;;7.50;6.60;;;;;;;4.03;71.07;94790.28;5063810;28;20263;-78
2023/01/28 10:08:53;;;;;;;9.88;7.85;;;;;;;3.99;71.92;94776.06;5062816;28;20230;-77
2023/01/28 10:11:25;;;;;;;10.50;7.20;;;;;;;4.05;72.03;94785.22;5062543;28;20315;-77
2023/01/28 10:14:01;;;;;;;9.50;6.78;;;;;;;4.05;71.10;94783.53;5062585;28;20258;-80
2023/01/28 10:16:33;;;;;;;7.93;7.17;;;;;;;4.07;71.73;94783.53;5062332;28;20282;-78
2023/01/28 10:19:06;;;;;;;9.77;8.10;;;;;;;4.15;71.62;94776.72;5063614;28;20261;-82
2023/01/28 10:21:39;;;;;;;8.17;7.23;;;;;;;4.17;71.61;94784.25;5064451;28;20970;-78
2023/01/28 10:24:11;;;;;;;8.80;7.90;;;;;;;4.22;70.79;94777.44;5062851;28;20234;-80
2023/01/28 10:26:40;;;;;;;8.47;7.57;;;;;;;4.15;71.16;94780.91;5063832;28;21001;-79
2023/01/28 10:29:14;;;;;;;8.73;7.83;;;;;;;4.30;71.12;94786.56;5065360;28;20755;-79
2023/01/28 10:31:50;;;;;;;11.30;7.43;;;;;;;4.29;70.96;94784.06;5063080;28;20230;-75
2023/01/28 10:34:19;;;;;;;7.83;7.13;;;;;;;4.28;70.38;94782.41;5063941;28;20719;-77
2023/01/28 10:36:46;;;;;;;7.30;6.67;;;;;;;4.23;70.51;94789.19;5062269;28;20750;-77
2023/01/28 10:39:14;;;;;;;8.07;7.27;;;;;;;4.30;70.87;94783.22;5063103;28;20307;-80
2023/01/28 10:41:41;;;;;;;8.63;7.67;;;;;;;4.48;71.00;94780.44;5044692;28;20663;-78
2023/01/28 10:44:17;;;;;;;7.70;6.90;;;;;;;4.77;69.66;94783.34;5064259;28;20226;-80
2023/01/28 10:46:46;;;;;;;7.43;6.67;;;;;;;4.98;68.35;94781.31;5062701;28;20205;-75
2023/01/28 10:49:16;;;;;;;6.80;6.20;;;;;;;5.06;67.80;94782.03;5062907;28;20283;-80
2023/01/28 10:51:44;;;;;;;8.10;7.23;;;;;;;4.94;68.48;94779.75;5061549;28;20276;-79
2023/01/28 10:54:20;;;;;;;7.40;6.70;;;;;;;4.99;68.18;94781.31;5062085;28;20307;-81
2023/01/28 10:56:49;;;;;;;9.38;7.20;;;;;;;5.09;68.55;94784.50;5062823;28;20376;-77
2023/01/28 10:59:21;;;;;;;7.60;6.83;;;;;;;5.20;67.94;94772.53;5061314;28;20202;-75
2023/01/28 11:01:52;;;;;;;7.17;5.93;;;;;;;5.02;68.47;94767.84;5060983;28;20216;-81
2023/01/28 11:04:23;;;;;;;8.32;6.38;;;;;;;4.91;67.68;94775.59;5062062;28;20229;-81
2023/01/28 11:06:56;;;;;;;8.88;6.15;;;;;;;5.00;68.33;94774.59;5061676;28;20206;-77
2023/01/28 11:09:25;;;;;;;7.75;7.05;;;;;;;5.08;68.57;94776.13;5063262;28;20230;-77
2023/01/28 11:11:52;;;;;;;8.23;6.40;;;;;;;5.05;67.46;94768.63;5062799;28;20289;-82
2023/01/28 11:14:20;;;;;;;6.80;6.20;;;;;;;5.09;68.04;94774.44;5062265;28;20229;-77
2023/01/28 11:16:47;;;;;;;6.40;5.87;;;;;;;5.25;67.36;94775.81;5061557;28;20670;-83
2023/01/28 11:19:15;;;;;;;6.60;6.00;;;;;;;5.27;66.86;94776.63;5062238;28;20665;-79
2023/01/28 11:21:49;;;;;;;7.70;6.90;;;;;;;5.51;66.28;94777.03;5063233;28;20209;-81
2023/01/28 11:24:22;;;;;;;7.63;7.03;;;;;;;5.69;65.95;94774.19;5062151;28;20266;-79
2023/01/28 11:26:52;;;;;;;8.17;6.67;;;;;;;5.69;65.52;94777.50;5060706;28;20325;-80
2023/01/28 11:29:23;;;;;;;6.60;6.10;;;;;;;5.59;65.05;94771.00;5059714;28;20205;-78
2023/01/28 11:31:50;;;;;;;6.20;5.63;;;;;;;5.56;64.10;94773.59;5062943;28;20283;-75
2023/01/28 11:34:19;;;;;;;6.03;5.53;;;;;;;5.48;65.11;94770.38;5061343;28;20253;-81
2023/01/28 11:37:02;;;;;;;6.20;5.63;;;;;;;5.46;66.25;94772.91;5062317;28;20654;-82
2023/01/28 11:39:30;;;;;;;8.00;6.75;;;;;;;5.53;65.43;94773.63;5063657;28;21175;-82
2023/01/28 11:42:11;;;;;;;6.20;5.60;;;;;;;5.55;64.78;94761.00;5062718;28;20258;-84
2023/01/28 11:44:40;;;;;;;7.43;6.43;;;;;;;5.55;65.10;94769.41;5061556;28;20727;-80
2023/01/28 11:47:24;;;;;;;7.87;6.83;;;;;;;5.54;65.20;94766.91;5060819;28;20262;-77
2023/01/28 11:50:07;;;;;;;6.60;5.77;;;;;;;5.63;65.20;94764.22;5064165;28;20209;-80
2023/01/28 11:52:47;;;;;;;7.93;5.80;;;;;;;5.69;64.36;94764.09;5066785;28;20233;-81
2023/01/28 11:55:29;;;;;;;6.10;5.60;;;;;;;5.75;64.70;94761.44;5066368;28;20316;-81
2023/01/28 11:58:06;;;;;;;6.00;5.50;;;;;;;5.83;64.32;94754.56;5067093;28;20201;-86
2023/01/28 12:00:46;;;;;;;8.63;5.70;;;;;;;5.68;64.54;94750.66;5066714;28;20686;-78
2023/01/28 12:03:29;;;;;;;6.17;5.67;;;;;;;5.72;63.97;94758.97;5063880;28;20319;-81
2023/01/28 12:06:04;;;;;;;5.90;5.30;;;;;;;5.80;64.13;94747.06;5063643;28;20197;-76
2023/01/28 12:08:39;;;;;;;6.57;5.93;;;;;;;5.90;64.31;94756.16;5065503;28;20281;-80
2023/01/28 12:12:10;;;;;;;6.67;5.90;;;;;;;5.85;63.81;94762.09;5064231;28;21628;-75
2023/01/28 12:14:22;;;;;;;5.53;5.00;;;;;;;5.74;64.06;94769.88;5063847;28;20233;-83
2023/01/28 12:16:59;;;;;;;7.20;6.10;;;;;;;5.43;65.04;94764.59;5065403;28;20269;-76
2023/01/28 12:19:54;;;;;;;6.53;5.93;;;;;;;5.36;64.62;94763.88;5064595;28;21298;-77
2023/01/28 12:22:42;;;;;;;5.95;5.35;;;;;;;5.28;64.73;94765.69;5061401;28;20229;-83
2023/01/28 12:25:24;;;;;;;5.83;5.33;;;;;;;5.14;65.11;94762.59;5065017;28;20206;-78
2023/01/28 12:28:03;;;;;;;20.33;10.90;;;;;;;5.12;65.83;94761.78;5066354;28;20213;-79
2023/01/28 12:30:43;;;;;;;8.13;7.03;;;;;;;5.02;66.31;94763.63;5064588;28;21375;-76